sensor_id;sensor_type;location;lat;lon;timestamp;P1;durP1;ratioP1;P2;durP2;ratioP2
10882;SDS011;5494;51.796;10.952;2023-01-04T00:01:32;4.87;;;3.00;;
10882;SDS011;5494;51.796;10.952;2023-01-04T00:04:00;7.83;;;3.70;;
10882;SDS011;5494;51.796;10.952;2023-01-04T00:06:28;6.10;;;2.83;;
10882;SDS011;5494;51.796;10.952;2023-01-04T00:08:56;4.13;;;2.60;;
10882;SDS011;5494;51.796;10.952;2023-01-04T00:11:24;5.43;;;2.53;;
10882;SDS011;5494;51.796;10.952;2023-01-04T00:13:54;6.30;;;2.70;;
10882;SDS011;5494;51.796;10.952;2023-01-04T00:16:26;6.60;;;2.83;;
10882;SDS011;5494;51.796;10.952;2023-01-04T00:18:55;4.40;;;2.83;;
10882;SDS011;5494;51.796;10.952;2023-01-04T00:21:27;5.87;;;2.63;;
10882;SDS011;5494;51.796;10.952;2023-01-04T00:23:58;4.53;;;2.43;;
10882;SDS011;5494;51.796;10.952;2023-01-04T00:26:28;5.83;;;3.00;;
10882;SDS011;5494;51.796;10.952;2023-01-04T00:28:59;4.57;;;2.80;;
10882;SDS011;5494;51.796;10.952;2023-01-04T00:31:32;3.23;;;2.63;;
10882;SDS011;5494;51.796;10.952;2023-01-04T00:34:01;5.57;;;2.83;;
10882;SDS011;5494;51.796;10.952;2023-01-04T00:36:32;5.17;;;2.37;;
10882;SDS011;5494;51.796;10.952;2023-01-04T00:39:01;3.83;;;2.20;;
10882;SDS011;5494;51.796;10.952;2023-01-04T00:41:37;5.67;;;2.53;;
10882;SDS011;5494;51.796;10.952;2023-01-04T00:44:25;3.97;;;2.57;;
10882;SDS011;5494;51.796;10.952;2023-01-04T00:46:55;6.17;;;2.43;;
10882;SDS011;5494;51.796;10.952;2023-01-04T00:49:24;4.50;;;2.30;;
10882;SDS011;5494;51.796;10.952;2023-01-04T00:51:53;3.87;;;2.57;;
10882;SDS011;5494;51.796;10.952;2023-01-04T00:54:22;6.10;;;2.47;;
10882;SDS011;5494;51.796;10.952;2023-01-04T00:56:50;2.97;;;2.17;;
10882;SDS011;5494;51.796;10.952;2023-01-04T00:59:19;4.83;;;2.70;;
10882;SDS011;5494;51.796;10.952;2023-01-04T01:01:48;3.27;;;2.17;;
10882;SDS011;5494;51.796;10.952;2023-01-04T01:04:19;2.63;;;1.50;;
10882;SDS011;5494;51.796;10.952;2023-01-04T01:06:49;4.37;;;2.27;;
10882;SDS011;5494;51.796;10.952;2023-01-04T01:09:18;4.87;;;2.47;;
10882;SDS011;5494;51.796;10.952;2023-01-04T01:11:49;5.60;;;2.83;;
10882;SDS011;5494;51.796;10.952;2023-01-04T01:14:20;2.80;;;2.30;;
10882;SDS011;5494;51.796;10.952;2023-01-04T01:16:51;5.77;;;2.70;;
10882;SDS011;5494;51.796;10.952;2023-01-04T01:19:25;4.30;;;2.50;;
10882;SDS011;5494;51.796;10.952;2023-01-04T01:21:55;4.10;;;2.27;;
10882;SDS011;5494;51.796;10.952;2023-01-04T01:24:24;5.33;;;2.63;;
10882;SDS011;5494;51.796;10.952;2023-01-04T01:26:53;6.37;;;2.87;;
10882;SDS011;5494;51.796;10.952;2023-01-04T01:29:24;5.57;;;3.43;;
10882;SDS011;5494;51.796;10.952;2023-01-04T01:31:52;5.93;;;2.60;;
10882;SDS011;5494;51.796;10.952;2023-01-04T01:34:20;4.23;;;2.40;;
10882;SDS011;5494;51.796;10.952;2023-01-04T01:36:50;4.70;;;2.13;;
10882;SDS011;5494;51.796;10.952;2023-01-04T01:39:18;3.43;;;2.47;;
10882;SDS011;5494;51.796;10.952;2023-01-04T01:41:46;3.87;;;2.20;;
10882;SDS011;5494;51.796;10.952;2023-01-04T01:47:24;5.33;;;2.60;;
10882;SDS011;5494;51.796;10.952;2023-01-04T01:50:02;4.73;;;2.43;;
10882;SDS011;5494;51.796;10.952;2023-01-04T01:52:38;4.93;;;2.50;;
10882;SDS011;5494;51.796;10.952;2023-01-04T01:55:07;4.03;;;2.70;;
10882;SDS011;5494;51.796;10.952;2023-01-04T01:57:38;6.50;;;2.90;;
10882;SDS011;5494;51.796;10.952;2023-01-04T02:00:09;3.50;;;2.40;;
10882;SDS011;5494;51.796;10.952;2023-01-04T02:02:41;4.23;;;2.40;;
10882;SDS011;5494;51.796;10.952;2023-01-04T02:05:19;3.90;;;2.17;;
10882;SDS011;5494;51.796;10.952;2023-01-04T02:07:50;5.80;;;2.67;;
10882;SDS011;5494;51.796;10.952;2023-01-04T02:10:19;5.50;;;3.27;;
10882;SDS011;5494;51.796;10.952;2023-01-04T02:12:48;5.20;;;2.70;;
10882;SDS011;5494;51.796;10.952;2023-01-04T02:15:18;4.13;;;2.30;;
10882;SDS011;5494;51.796;10.952;2023-01-04T02:17:53;5.83;;;2.30;;
10882;SDS011;5494;51.796;10.952;2023-01-04T02:20:37;5.83;;;2.60;;
10882;SDS011;5494;51.796;10.952;2023-01-04T02:26:35;6.00;;;2.50;;
10882;SDS011;5494;51.796;10.952;2023-01-04T02:33:06;3.87;;;2.30;;
10882;SDS011;5494;51.796;10.952;2023-01-04T02:35:51;8.17;;;2.63;;
10882;SDS011;5494;51.796;10.952;2023-01-04T02:38:33;4.47;;;2.20;;
10882;SDS011;5494;51.796;10.952;2023-01-04T02:41:20;3.07;;;2.00;;
10882;SDS011;5494;51.796;10.952;2023-01-04T02:44:00;5.50;;;2.70;;
10882;SDS011;5494;51.796;10.952;2023-01-04T02:47:04;7.07;;;2.20;;
10882;SDS011;5494;51.796;10.952;2023-01-04T02:49:39;4.10;;;2.47;;
10882;SDS011;5494;51.796;10.952;2023-01-04T02:52:30;2.87;;;2.00;;
10882;SDS011;5494;51.796;10.952;2023-01-04T02:54:59;6.57;;;2.77;;
10882;SDS011;5494;51.796;10.952;2023-01-04T02:57:37;3.30;;;2.50;;
10882;SDS011;5494;51.796;10.952;2023-01-04T03:00:23;4.57;;;2.50;;
10882;SDS011;5494;51.796;10.952;2023-01-04T03:03:31;3.87;;;2.47;;
10882;SDS011;5494;51.796;10.952;2023-01-04T03:06:35;3.97;;;1.83;;
10882;SDS011;5494;51.796;10.952;2023-01-04T03:09:17;3.20;;;2.10;;
10882;SDS011;5494;51.796;10.952;2023-01-04T03:11:54;4.00;;;2.10;;
10882;SDS011;5494;51.796;10.952;2023-01-04T03:14:49;3.67;;;1.97;;
10882;SDS011;5494;51.796;10.952;2023-01-04T03:17:26;4.13;;;2.30;;
10882;SDS011;5494;51.796;10.952;2023-01-04T03:20:00;2.60;;;1.80;;
10882;SDS011;5494;51.796;10.952;2023-01-04T03:22:31;5.27;;;2.00;;
10882;SDS011;5494;51.796;10.952;2023-01-04T03:25:24;4.03;;;2.20;;
10882;SDS011;5494;51.796;10.952;2023-01-04T03:28:14;5.07;;;1.80;;
10882;SDS011;5494;51.796;10.952;2023-01-04T03:31:07;3.73;;;2.17;;
10882;SDS011;5494;51.796;10.952;2023-01-04T03:34:03;4.80;;;2.17;;
10882;SDS011;5494;51.796;10.952;2023-01-04T03:36:53;3.50;;;1.80;;
10882;SDS011;5494;51.796;10.952;2023-01-04T03:39:50;3.57;;;2.10;;
10882;SDS011;5494;51.796;10.952;2023-01-04T03:42:57;6.30;;;1.97;;
10882;SDS011;5494;51.796;10.952;2023-01-04T03:45:53;3.20;;;1.57;;
10882;SDS011;5494;51.796;10.952;2023-01-04T03:48:52;2.93;;;1.87;;
10882;SDS011;5494;51.796;10.952;2023-01-04T03:51:27;6.17;;;1.87;;
10882;SDS011;5494;51.796;10.952;2023-01-04T03:54:02;3.23;;;1.50;;
10882;SDS011;5494;51.796;10.952;2023-01-04T03:56:39;4.13;;;1.70;;
10882;SDS011;5494;51.796;10.952;2023-01-04T03:59:10;4.80;;;2.03;;
10882;SDS011;5494;51.796;10.952;2023-01-04T04:01:39;2.63;;;1.53;;
10882;SDS011;5494;51.796;10.952;2023-01-04T04:04:15;2.63;;;1.50;;
10882;SDS011;5494;51.796;10.952;2023-01-04T04:07:07;3.57;;;1.77;;
10882;SDS011;5494;51.796;10.952;2023-01-04T04:09:52;5.03;;;1.47;;
10882;SDS011;5494;51.796;10.952;2023-01-04T04:12:22;3.30;;;1.63;;
10882;SDS011;5494;51.796;10.952;2023-01-04T04:14:49;6.70;;;1.90;;
10882;SDS011;5494;51.796;10.952;2023-01-04T04:17:17;3.53;;;1.50;;
10882;SDS011;5494;51.796;10.952;2023-01-04T04:19:45;4.70;;;1.57;;
10882;SDS011;5494;51.796;10.952;2023-01-04T04:22:13;5.23;;;1.43;;
10882;SDS011;5494;51.796;10.952;2023-01-04T04:24:41;5.90;;;1.73;;
10882;SDS011;5494;51.796;10.952;2023-01-04T04:27:09;3.63;;;1.40;;
10882;SDS011;5494;51.796;10.952;2023-01-04T04:29:38;2.40;;;1.17;;
10882;SDS011;5494;51.796;10.952;2023-01-04T04:32:06;3.33;;;1.10;;
10882;SDS011;5494;51.796;10.952;2023-01-04T04:34:34;4.90;;;1.30;;
10882;SDS011;5494;51.796;10.952;2023-01-04T04:37:05;3.17;;;1.50;;
10882;SDS011;5494;51.796;10.952;2023-01-04T04:39:33;3.27;;;1.23;;
10882;SDS011;5494;51.796;10.952;2023-01-04T04:42:01;2.37;;;1.23;;
10882;SDS011;5494;51.796;10.952;2023-01-04T04:44:28;4.00;;;1.30;;
10882;SDS011;5494;51.796;10.952;2023-01-04T04:46:57;3.83;;;1.20;;
10882;SDS011;5494;51.796;10.952;2023-01-04T04:49:25;2.27;;;1.13;;
10882;SDS011;5494;51.796;10.952;2023-01-04T04:51:53;2.77;;;0.97;;
10882;SDS011;5494;51.796;10.952;2023-01-04T04:54:22;2.47;;;0.93;;
10882;SDS011;5494;51.796;10.952;2023-01-04T04:56:50;1.27;;;1.00;;
10882;SDS011;5494;51.796;10.952;2023-01-04T04:59:17;2.70;;;1.03;;
10882;SDS011;5494;51.796;10.952;2023-01-04T05:01:46;4.17;;;1.20;;
10882;SDS011;5494;51.796;10.952;2023-01-04T05:04:15;1.97;;;1.10;;
10882;SDS011;5494;51.796;10.952;2023-01-04T05:06:45;4.00;;;1.10;;
10882;SDS011;5494;51.796;10.952;2023-01-04T05:09:15;2.07;;;1.13;;
10882;SDS011;5494;51.796;10.952;2023-01-04T05:11:43;1.77;;;1.00;;
10882;SDS011;5494;51.796;10.952;2023-01-04T05:14:28;1.90;;;0.90;;
10882;SDS011;5494;51.796;10.952;2023-01-04T05:16:56;2.20;;;1.00;;
10882;SDS011;5494;51.796;10.952;2023-01-04T05:19:26;3.70;;;0.90;;
10882;SDS011;5494;51.796;10.952;2023-01-04T05:21:54;2.70;;;1.00;;
10882;SDS011;5494;51.796;10.952;2023-01-04T05:24:22;2.00;;;1.13;;
10882;SDS011;5494;51.796;10.952;2023-01-04T05:26:50;5.90;;;1.30;;
10882;SDS011;5494;51.796;10.952;2023-01-04T05:29:18;2.03;;;1.33;;
10882;SDS011;5494;51.796;10.952;2023-01-04T05:32:03;1.87;;;1.10;;
10882;SDS011;5494;51.796;10.952;2023-01-04T05:34:33;2.93;;;1.47;;
10882;SDS011;5494;51.796;10.952;2023-01-04T05:37:01;2.33;;;1.13;;
10882;SDS011;5494;51.796;10.952;2023-01-04T05:39:29;1.73;;;1.13;;
10882;SDS011;5494;51.796;10.952;2023-01-04T05:41:57;2.00;;;1.00;;
10882;SDS011;5494;51.796;10.952;2023-01-04T05:44:42;2.07;;;1.87;;
10882;SDS011;5494;51.796;10.952;2023-01-04T05:47:10;2.53;;;1.40;;
10882;SDS011;5494;51.796;10.952;2023-01-04T05:49:41;3.77;;;1.30;;
10882;SDS011;5494;51.796;10.952;2023-01-04T05:52:10;3.53;;;1.23;;
10882;SDS011;5494;51.796;10.952;2023-01-04T05:54:38;3.23;;;1.40;;
10882;SDS011;5494;51.796;10.952;2023-01-04T05:57:06;3.37;;;1.20;;
10882;SDS011;5494;51.796;10.952;2023-01-04T05:59:35;2.50;;;1.20;;
10882;SDS011;5494;51.796;10.952;2023-01-04T06:02:09;3.20;;;1.37;;
10882;SDS011;5494;51.796;10.952;2023-01-04T06:04:43;1.37;;;1.20;;
10882;SDS011;5494;51.796;10.952;2023-01-04T06:07:13;2.90;;;1.30;;
10882;SDS011;5494;51.796;10.952;2023-01-04T06:09:42;3.87;;;1.17;;
10882;SDS011;5494;51.796;10.952;2023-01-04T06:12:10;2.77;;;1.27;;
10882;SDS011;5494;51.796;10.952;2023-01-04T06:14:38;2.90;;;1.30;;
10882;SDS011;5494;51.796;10.952;2023-01-04T06:17:06;2.37;;;1.00;;
10882;SDS011;5494;51.796;10.952;2023-01-04T06:19:35;2.33;;;1.37;;
10882;SDS011;5494;51.796;10.952;2023-01-04T06:22:04;2.20;;;1.30;;
10882;SDS011;5494;51.796;10.952;2023-01-04T06:24:33;2.80;;;1.20;;
10882;SDS011;5494;51.796;10.952;2023-01-04T06:27:01;3.13;;;1.40;;
10882;SDS011;5494;51.796;10.952;2023-01-04T06:29:30;1.67;;;1.20;;
10882;SDS011;5494;51.796;10.952;2023-01-04T06:31:58;2.87;;;1.70;;
10882;SDS011;5494;51.796;10.952;2023-01-04T06:34:26;3.23;;;1.70;;
10882;SDS011;5494;51.796;10.952;2023-01-04T06:36:56;2.40;;;1.50;;
10882;SDS011;5494;51.796;10.952;2023-01-04T06:39:26;1.90;;;1.23;;
10882;SDS011;5494;51.796;10.952;2023-01-04T06:41:54;1.67;;;1.20;;
10882;SDS011;5494;51.796;10.952;2023-01-04T06:44:31;2.73;;;1.30;;
10882;SDS011;5494;51.796;10.952;2023-01-04T06:46:59;2.07;;;1.10;;
10882;SDS011;5494;51.796;10.952;2023-01-04T06:49:27;2.80;;;1.30;;
10882;SDS011;5494;51.796;10.952;2023-01-04T06:51:55;1.60;;;1.17;;
10882;SDS011;5494;51.796;10.952;2023-01-04T06:54:23;3.17;;;1.60;;
10882;SDS011;5494;51.796;10.952;2023-01-04T06:56:52;1.53;;;1.30;;
10882;SDS011;5494;51.796;10.952;2023-01-04T06:59:20;1.93;;;1.50;;
10882;SDS011;5494;51.796;10.952;2023-01-04T07:01:48;2.17;;;1.30;;
10882;SDS011;5494;51.796;10.952;2023-01-04T07:04:19;2.40;;;1.60;;
10882;SDS011;5494;51.796;10.952;2023-01-04T07:06:47;3.57;;;1.60;;
10882;SDS011;5494;51.796;10.952;2023-01-04T07:09:15;4.80;;;1.23;;
10882;SDS011;5494;51.796;10.952;2023-01-04T07:11:43;1.67;;;1.13;;
10882;SDS011;5494;51.796;10.952;2023-01-04T07:14:18;1.87;;;1.00;;
10882;SDS011;5494;51.796;10.952;2023-01-04T07:16:46;1.33;;;1.03;;
10882;SDS011;5494;51.796;10.952;2023-01-04T07:19:14;1.73;;;1.10;;
10882;SDS011;5494;51.796;10.952;2023-01-04T07:21:42;1.97;;;1.23;;
10882;SDS011;5494;51.796;10.952;2023-01-04T07:24:10;2.60;;;1.80;;
10882;SDS011;5494;51.796;10.952;2023-01-04T07:26:38;2.57;;;1.17;;
10882;SDS011;5494;51.796;10.952;2023-01-04T07:29:10;2.23;;;1.30;;
10882;SDS011;5494;51.796;10.952;2023-01-04T07:31:44;1.40;;;1.30;;
10882;SDS011;5494;51.796;10.952;2023-01-04T07:34:15;2.13;;;1.10;;
10882;SDS011;5494;51.796;10.952;2023-01-04T07:36:45;1.67;;;1.17;;
10882;SDS011;5494;51.796;10.952;2023-01-04T07:39:14;2.40;;;1.20;;
10882;SDS011;5494;51.796;10.952;2023-01-04T07:41:43;1.97;;;1.40;;
10882;SDS011;5494;51.796;10.952;2023-01-04T07:44:15;2.17;;;1.50;;
10882;SDS011;5494;51.796;10.952;2023-01-04T07:46:45;4.20;;;1.23;;
10882;SDS011;5494;51.796;10.952;2023-01-04T07:49:15;1.83;;;1.20;;
10882;SDS011;5494;51.796;10.952;2023-01-04T07:51:44;1.83;;;1.17;;
10882;SDS011;5494;51.796;10.952;2023-01-04T07:54:14;1.30;;;1.20;;
10882;SDS011;5494;51.796;10.952;2023-01-04T07:56:43;1.13;;;1.00;;
10882;SDS011;5494;51.796;10.952;2023-01-04T07:59:13;2.93;;;1.10;;
10882;SDS011;5494;51.796;10.952;2023-01-04T08:01:43;2.53;;;1.50;;
10882;SDS011;5494;51.796;10.952;2023-01-04T08:04:14;1.93;;;1.47;;
10882;SDS011;5494;51.796;10.952;2023-01-04T08:06:43;2.93;;;1.53;;
10882;SDS011;5494;51.796;10.952;2023-01-04T08:09:12;3.17;;;1.70;;
10882;SDS011;5494;51.796;10.952;2023-01-04T08:11:43;2.40;;;1.73;;
10882;SDS011;5494;51.796;10.952;2023-01-04T08:14:12;1.80;;;1.40;;
10882;SDS011;5494;51.796;10.952;2023-01-04T08:16:40;1.90;;;1.53;;
10882;SDS011;5494;51.796;10.952;2023-01-04T08:19:13;1.80;;;1.60;;
10882;SDS011;5494;51.796;10.952;2023-01-04T08:21:43;2.80;;;1.60;;
10882;SDS011;5494;51.796;10.952;2023-01-04T08:24:13;3.07;;;1.47;;
10882;SDS011;5494;51.796;10.952;2023-01-04T08:26:46;2.10;;;1.37;;
10882;SDS011;5494;51.796;10.952;2023-01-04T08:29:14;4.00;;;2.27;;
10882;SDS011;5494;51.796;10.952;2023-01-04T08:31:42;2.47;;;1.60;;
10882;SDS011;5494;51.796;10.952;2023-01-04T08:34:12;4.87;;;2.93;;
10882;SDS011;5494;51.796;10.952;2023-01-04T08:36:44;2.13;;;1.90;;
10882;SDS011;5494;51.796;10.952;2023-01-04T08:39:15;2.17;;;1.67;;
10882;SDS011;5494;51.796;10.952;2023-01-04T08:41:43;2.07;;;1.60;;
10882;SDS011;5494;51.796;10.952;2023-01-04T08:44:24;2.73;;;1.97;;
10882;SDS011;5494;51.796;10.952;2023-01-04T08:46:53;2.43;;;1.80;;
10882;SDS011;5494;51.796;10.952;2023-01-04T08:49:23;1.90;;;1.63;;
10882;SDS011;5494;51.796;10.952;2023-01-04T08:51:51;2.60;;;1.90;;
10882;SDS011;5494;51.796;10.952;2023-01-04T08:54:19;2.50;;;1.70;;
10882;SDS011;5494;51.796;10.952;2023-01-04T08:56:48;2.97;;;2.30;;
10882;SDS011;5494;51.796;10.952;2023-01-04T08:59:16;2.27;;;1.77;;
10882;SDS011;5494;51.796;10.952;2023-01-04T09:01:44;1.93;;;1.73;;
10882;SDS011;5494;51.796;10.952;2023-01-04T09:04:12;3.57;;;3.27;;
10882;SDS011;5494;51.796;10.952;2023-01-04T09:06:41;2.23;;;2.03;;
10882;SDS011;5494;51.796;10.952;2023-01-04T09:09:09;2.67;;;1.87;;
10882;SDS011;5494;51.796;10.952;2023-01-04T09:11:37;3.40;;;2.20;;
10882;SDS011;5494;51.796;10.952;2023-01-04T09:14:05;2.47;;;1.67;;
10882;SDS011;5494;51.796;10.952;2023-01-04T09:16:36;1.67;;;1.50;;
10882;SDS011;5494;51.796;10.952;2023-01-04T09:19:04;4.47;;;1.73;;
10882;SDS011;5494;51.796;10.952;2023-01-04T09:21:33;1.90;;;1.43;;
10882;SDS011;5494;51.796;10.952;2023-01-04T09:24:03;3.00;;;1.83;;
10882;SDS011;5494;51.796;10.952;2023-01-04T09:26:31;1.70;;;1.40;;
10882;SDS011;5494;51.796;10.952;2023-01-04T09:28:59;2.63;;;1.57;;
10882;SDS011;5494;51.796;10.952;2023-01-04T09:31:29;4.13;;;1.80;;
10882;SDS011;5494;51.796;10.952;2023-01-04T09:33:57;2.90;;;1.57;;
10882;SDS011;5494;51.796;10.952;2023-01-04T09:36:43;1.87;;;1.67;;
10882;SDS011;5494;51.796;10.952;2023-01-04T09:39:15;1.70;;;1.60;;
10882;SDS011;5494;51.796;10.952;2023-01-04T09:41:51;1.70;;;1.60;;
10882;SDS011;5494;51.796;10.952;2023-01-04T09:44:32;2.87;;;1.70;;
10882;SDS011;5494;51.796;10.952;2023-01-04T09:47:29;1.90;;;1.60;;
10882;SDS011;5494;51.796;10.952;2023-01-04T09:50:06;2.00;;;1.80;;
10882;SDS011;5494;51.796;10.952;2023-01-04T09:52:45;2.73;;;1.57;;
10882;SDS011;5494;51.796;10.952;2023-01-04T09:55:26;2.40;;;1.80;;
10882;SDS011;5494;51.796;10.952;2023-01-04T09:58:07;1.60;;;1.40;;
10882;SDS011;5494;51.796;10.952;2023-01-04T10:00:48;3.10;;;1.50;;
10882;SDS011;5494;51.796;10.952;2023-01-04T10:03:23;1.90;;;1.40;;
10882;SDS011;5494;51.796;10.952;2023-01-04T10:05:56;1.50;;;1.40;;
10882;SDS011;5494;51.796;10.952;2023-01-04T10:08:24;1.67;;;1.43;;
10882;SDS011;5494;51.796;10.952;2023-01-04T10:10:59;2.07;;;1.70;;
10882;SDS011;5494;51.796;10.952;2023-01-04T10:13:56;1.60;;;1.23;;
10882;SDS011;5494;51.796;10.952;2023-01-04T10:16:44;1.60;;;1.27;;
10882;SDS011;5494;51.796;10.952;2023-01-04T10:19:43;1.60;;;1.30;;
10882;SDS011;5494;51.796;10.952;2023-01-04T10:22:49;1.83;;;1.40;;
10882;SDS011;5494;51.796;10.952;2023-01-04T10:25:31;1.47;;;1.33;;
10882;SDS011;5494;51.796;10.952;2023-01-04T10:28:12;1.93;;;1.37;;
10882;SDS011;5494;51.796;10.952;2023-01-04T10:31:01;2.00;;;1.50;;
10882;SDS011;5494;51.796;10.952;2023-01-04T10:34:03;3.43;;;1.80;;
10882;SDS011;5494;51.796;10.952;2023-01-04T10:36:47;2.30;;;1.80;;
10882;SDS011;5494;51.796;10.952;2023-01-04T10:39:18;1.40;;;1.23;;
10882;SDS011;5494;51.796;10.952;2023-01-04T10:41:59;2.60;;;1.60;;
10882;SDS011;5494;51.796;10.952;2023-01-04T10:44:40;1.93;;;1.40;;
10882;SDS011;5494;51.796;10.952;2023-01-04T10:47:24;3.80;;;1.60;;
10882;SDS011;5494;51.796;10.952;2023-01-04T10:50:02;1.83;;;1.37;;
10882;SDS011;5494;51.796;10.952;2023-01-04T10:52:41;1.43;;;1.33;;
10882;SDS011;5494;51.796;10.952;2023-01-04T10:55:16;1.37;;;1.10;;
10882;SDS011;5494;51.796;10.952;2023-01-04T10:57:51;1.17;;;0.87;;
10882;SDS011;5494;51.796;10.952;2023-01-04T11:00:27;2.00;;;1.00;;
10882;SDS011;5494;51.796;10.952;2023-01-04T11:03:01;2.07;;;1.10;;
10882;SDS011;5494;51.796;10.952;2023-01-04T11:05:39;1.10;;;1.00;;
10882;SDS011;5494;51.796;10.952;2023-01-04T11:08:15;1.10;;;1.00;;
10882;SDS011;5494;51.796;10.952;2023-01-04T11:10:49;1.40;;;1.30;;
10882;SDS011;5494;51.796;10.952;2023-01-04T11:13:23;1.30;;;1.20;;
10882;SDS011;5494;51.796;10.952;2023-01-04T11:15:52;1.37;;;1.10;;
10882;SDS011;5494;51.796;10.952;2023-01-04T11:18:21;2.10;;;1.23;;
10882;SDS011;5494;51.796;10.952;2023-01-04T11:20:50;1.13;;;1.03;;
10882;SDS011;5494;51.796;10.952;2023-01-04T11:23:19;1.57;;;1.17;;
10882;SDS011;5494;51.796;10.952;2023-01-04T11:25:49;2.20;;;1.40;;
10882;SDS011;5494;51.796;10.952;2023-01-04T11:28:23;1.73;;;1.33;;
10882;SDS011;5494;51.796;10.952;2023-01-04T11:31:08;1.13;;;1.03;;
10882;SDS011;5494;51.796;10.952;2023-01-04T11:33:51;1.67;;;1.30;;
10882;SDS011;5494;51.796;10.952;2023-01-04T11:39:20;2.30;;;1.27;;
10882;SDS011;5494;51.796;10.952;2023-01-04T11:41:54;1.10;;;1.00;;
10882;SDS011;5494;51.796;10.952;2023-01-04T11:44:29;2.10;;;1.50;;
10882;SDS011;5494;51.796;10.952;2023-01-04T11:47:07;1.70;;;1.27;;
10882;SDS011;5494;51.796;10.952;2023-01-04T11:49:44;1.80;;;1.30;;
10882;SDS011;5494;51.796;10.952;2023-01-04T11:52:26;2.13;;;1.30;;
10882;SDS011;5494;51.796;10.952;2023-01-04T11:55:11;2.33;;;1.20;;
10882;SDS011;5494;51.796;10.952;2023-01-04T11:57:43;1.60;;;1.23;;
10882;SDS011;5494;51.796;10.952;2023-01-04T12:00:13;1.50;;;1.20;;
10882;SDS011;5494;51.796;10.952;2023-01-04T12:02:44;1.90;;;1.23;;
10882;SDS011;5494;51.796;10.952;2023-01-04T12:05:28;1.60;;;1.30;;
10882;SDS011;5494;51.796;10.952;2023-01-04T12:07:58;1.13;;;1.00;;
10882;SDS011;5494;51.796;10.952;2023-01-04T12:10:27;1.43;;;1.30;;
10882;SDS011;5494;51.796;10.952;2023-01-04T12:12:55;1.80;;;1.37;;
10882;SDS011;5494;51.796;10.952;2023-01-04T12:15:29;1.90;;;1.00;;
10882;SDS011;5494;51.796;10.952;2023-01-04T12:18:08;2.17;;;1.23;;
10882;SDS011;5494;51.796;10.952;2023-01-04T12:20:43;1.20;;;1.10;;
10882;SDS011;5494;51.796;10.952;2023-01-04T12:23:12;0.87;;;0.80;;
10882;SDS011;5494;51.796;10.952;2023-01-04T12:25:40;1.00;;;0.90;;
10882;SDS011;5494;51.796;10.952;2023-01-04T12:28:29;1.30;;;0.70;;
10882;SDS011;5494;51.796;10.952;2023-01-04T12:34:21;1.20;;;0.60;;
10882;SDS011;5494;51.796;10.952;2023-01-04T12:37:07;0.60;;;0.60;;
10882;SDS011;5494;51.796;10.952;2023-01-04T12:39:41;0.60;;;0.60;;
10882;SDS011;5494;51.796;10.952;2023-01-04T12:42:14;1.37;;;0.87;;
10882;SDS011;5494;51.796;10.952;2023-01-04T12:44:58;1.07;;;0.90;;
10882;SDS011;5494;51.796;10.952;2023-01-04T12:47:49;1.70;;;1.27;;
10882;SDS011;5494;51.796;10.952;2023-01-04T12:54:00;0.50;;;0.50;;
10882;SDS011;5494;51.796;10.952;2023-01-04T12:59:57;0.70;;;0.70;;
10882;SDS011;5494;51.796;10.952;2023-01-04T13:02:27;1.20;;;0.60;;
10882;SDS011;5494;51.796;10.952;2023-01-04T13:04:57;0.83;;;0.67;;
10882;SDS011;5494;51.796;10.952;2023-01-04T13:07:49;0.33;;;0.33;;
10882;SDS011;5494;51.796;10.952;2023-01-04T13:10:25;0.50;;;0.50;;
10882;SDS011;5494;51.796;10.952;2023-01-04T13:13:02;0.50;;;0.50;;
10882;SDS011;5494;51.796;10.952;2023-01-04T13:15:53;0.50;;;0.50;;
10882;SDS011;5494;51.796;10.952;2023-01-04T13:18:40;0.70;;;0.60;;
10882;SDS011;5494;51.796;10.952;2023-01-04T13:21:15;0.90;;;0.63;;
10882;SDS011;5494;51.796;10.952;2023-01-04T13:23:54;1.33;;;0.50;;
10882;SDS011;5494;51.796;10.952;2023-01-04T13:26:28;0.87;;;0.70;;
10882;SDS011;5494;51.796;10.952;2023-01-04T13:29:07;1.20;;;0.80;;
10882;SDS011;5494;51.796;10.952;2023-01-04T13:31:43;1.13;;;0.60;;
10882;SDS011;5494;51.796;10.952;2023-01-04T13:34:17;1.30;;;0.60;;
10882;SDS011;5494;51.796;10.952;2023-01-04T13:36:53;0.70;;;0.60;;
10882;SDS011;5494;51.796;10.952;2023-01-04T13:40:01;0.80;;;0.77;;
10882;SDS011;5494;51.796;10.952;2023-01-04T13:42:46;1.00;;;0.70;;
10882;SDS011;5494;51.796;10.952;2023-01-04T13:48:35;1.60;;;0.67;;
10882;SDS011;5494;51.796;10.952;2023-01-04T13:51:11;1.10;;;0.80;;
10882;SDS011;5494;51.796;10.952;2023-01-04T13:53:50;1.33;;;0.97;;
10882;SDS011;5494;51.796;10.952;2023-01-04T13:56:22;1.83;;;0.80;;
10882;SDS011;5494;51.796;10.952;2023-01-04T13:58:53;1.27;;;1.00;;
10882;SDS011;5494;51.796;10.952;2023-01-04T14:01:22;1.67;;;1.17;;
10882;SDS011;5494;51.796;10.952;2023-01-04T14:03:53;1.83;;;1.10;;
10882;SDS011;5494;51.796;10.952;2023-01-04T14:06:26;1.73;;;0.90;;
10882;SDS011;5494;51.796;10.952;2023-01-04T14:08:59;1.43;;;1.00;;
10882;SDS011;5494;51.796;10.952;2023-01-04T14:11:34;1.50;;;1.27;;
10882;SDS011;5494;51.796;10.952;2023-01-04T14:14:34;1.40;;;1.30;;
10882;SDS011;5494;51.796;10.952;2023-01-04T14:17:18;1.13;;;1.03;;
10882;SDS011;5494;51.796;10.952;2023-01-04T14:19:59;0.80;;;0.80;;
10882;SDS011;5494;51.796;10.952;2023-01-04T14:22:40;1.17;;;1.00;;
10882;SDS011;5494;51.796;10.952;2023-01-04T14:25:34;1.10;;;0.80;;
10882;SDS011;5494;51.796;10.952;2023-01-04T14:31:19;1.50;;;0.70;;
10882;SDS011;5494;51.796;10.952;2023-01-04T14:33:53;1.10;;;0.90;;
10882;SDS011;5494;51.796;10.952;2023-01-04T14:36:23;1.60;;;0.90;;
10882;SDS011;5494;51.796;10.952;2023-01-04T14:39:08;1.67;;;0.90;;
10882;SDS011;5494;51.796;10.952;2023-01-04T14:41:50;2.70;;;1.07;;
10882;SDS011;5494;51.796;10.952;2023-01-04T14:44:24;1.17;;;0.70;;
10882;SDS011;5494;51.796;10.952;2023-01-04T14:46:56;2.03;;;1.00;;
10882;SDS011;5494;51.796;10.952;2023-01-04T14:49:26;2.90;;;1.20;;
10882;SDS011;5494;51.796;10.952;2023-01-04T14:51:55;2.10;;;1.40;;
10882;SDS011;5494;51.796;10.952;2023-01-04T14:54:26;1.90;;;1.37;;
10882;SDS011;5494;51.796;10.952;2023-01-04T14:56:57;1.37;;;1.13;;
10882;SDS011;5494;51.796;10.952;2023-01-04T14:59:27;0.63;;;0.60;;
10882;SDS011;5494;51.796;10.952;2023-01-04T15:01:55;0.90;;;0.60;;
10882;SDS011;5494;51.796;10.952;2023-01-04T15:04:24;1.17;;;0.70;;
10882;SDS011;5494;51.796;10.952;2023-01-04T15:06:53;0.60;;;0.60;;
10882;SDS011;5494;51.796;10.952;2023-01-04T15:09:24;1.07;;;0.60;;
10882;SDS011;5494;51.796;10.952;2023-01-04T15:11:53;0.50;;;0.43;;
10882;SDS011;5494;51.796;10.952;2023-01-04T15:14:22;2.30;;;0.87;;
10882;SDS011;5494;51.796;10.952;2023-01-04T15:16:51;0.30;;;0.30;;
10882;SDS011;5494;51.796;10.952;2023-01-04T15:19:19;0.40;;;0.40;;
10882;SDS011;5494;51.796;10.952;2023-01-04T15:21:47;1.30;;;0.60;;
10882;SDS011;5494;51.796;10.952;2023-01-04T15:24:15;1.03;;;0.67;;
10882;SDS011;5494;51.796;10.952;2023-01-04T15:26:43;0.73;;;0.37;;
10882;SDS011;5494;51.796;10.952;2023-01-04T15:29:11;0.60;;;0.50;;
10882;SDS011;5494;51.796;10.952;2023-01-04T15:31:39;0.80;;;0.40;;
10882;SDS011;5494;51.796;10.952;2023-01-04T15:34:10;0.70;;;0.60;;
10882;SDS011;5494;51.796;10.952;2023-01-04T15:36:40;0.50;;;0.50;;
10882;SDS011;5494;51.796;10.952;2023-01-04T15:39:10;2.60;;;0.70;;
10882;SDS011;5494;51.796;10.952;2023-01-04T15:41:39;1.53;;;0.77;;
10882;SDS011;5494;51.796;10.952;2023-01-04T15:44:27;0.57;;;0.50;;
10882;SDS011;5494;51.796;10.952;2023-01-04T15:46:55;0.40;;;0.40;;
10882;SDS011;5494;51.796;10.952;2023-01-04T15:49:26;1.97;;;0.73;;
10882;SDS011;5494;51.796;10.952;2023-01-04T15:51:56;1.43;;;0.77;;
10882;SDS011;5494;51.796;10.952;2023-01-04T15:54:24;1.60;;;0.70;;
10882;SDS011;5494;51.796;10.952;2023-01-04T15:56:52;0.80;;;0.80;;
10882;SDS011;5494;51.796;10.952;2023-01-04T15:59:21;1.93;;;0.90;;